sensor_id;sensor_type;location;lat;lon;timestamp;P1;durP1;ratioP1;P2;durP2;ratioP2
58756;SDS011;44527;47.460;19.016;2024-02-21T00:01:54;5.40;;;2.62;;
58756;SDS011;44527;47.460;19.016;2024-02-21T00:04:56;3.40;;;2.10;;
58756;SDS011;44527;47.460;19.016;2024-02-21T00:07:59;5.30;;;2.05;;
58756;SDS011;44527;47.460;19.016;2024-02-21T00:11:02;6.95;;;2.40;;
58756;SDS011;44527;47.460;19.016;2024-02-21T00:14:06;3.53;;;2.40;;
58756;SDS011;44527;47.460;19.016;2024-02-21T00:17:08;3.75;;;1.98;;
58756;SDS011;44527;47.460;19.016;2024-02-21T00:20:11;3.92;;;2.10;;
58756;SDS011;44527;47.460;19.016;2024-02-21T00:23:14;7.32;;;2.20;;
58756;SDS011;44527;47.460;19.016;2024-02-21T00:26:16;5.43;;;1.70;;
58756;SDS011;44527;47.460;19.016;2024-02-21T00:29:19;3.33;;;1.87;;
58756;SDS011;44527;47.460;19.016;2024-02-21T00:32:22;3.33;;;2.00;;
58756;SDS011;44527;47.460;19.016;2024-02-21T00:35:25;4.22;;;1.48;;
58756;SDS011;44527;47.460;19.016;2024-02-21T00:38:27;3.12;;;1.80;;
58756;SDS011;44527;47.460;19.016;2024-02-21T00:41:30;4.20;;;1.50;;
58756;SDS011;44527;47.460;19.016;2024-02-21T00:44:32;4.85;;;1.83;;
58756;SDS011;44527;47.460;19.016;2024-02-21T00:47:35;2.05;;;1.27;;
58756;SDS011;44527;47.460;19.016;2024-02-21T00:50:38;3.92;;;1.55;;
58756;SDS011;44527;47.460;19.016;2024-02-21T00:53:41;3.83;;;1.67;;
58756;SDS011;44527;47.460;19.016;2024-02-21T00:56:44;2.42;;;1.17;;
58756;SDS011;44527;47.460;19.016;2024-02-21T00:59:47;4.12;;;1.40;;
58756;SDS011;44527;47.460;19.016;2024-02-21T01:02:49;6.65;;;1.95;;
58756;SDS011;44527;47.460;19.016;2024-02-21T01:05:55;4.03;;;1.27;;
58756;SDS011;44527;47.460;19.016;2024-02-21T01:08:57;2.20;;;1.20;;
58756;SDS011;44527;47.460;19.016;2024-02-21T01:12:00;6.15;;;1.42;;
58756;SDS011;44527;47.460;19.016;2024-02-21T01:15:03;2.87;;;1.27;;
58756;SDS011;44527;47.460;19.016;2024-02-21T01:18:07;3.17;;;1.02;;
58756;SDS011;44527;47.460;19.016;2024-02-21T01:21:09;3.40;;;1.25;;
58756;SDS011;44527;47.460;19.016;2024-02-21T01:24:12;6.72;;;1.40;;
58756;SDS011;44527;47.460;19.016;2024-02-21T01:27:16;4.00;;;1.35;;
58756;SDS011;44527;47.460;19.016;2024-02-21T01:30:19;2.25;;;1.00;;
58756;SDS011;44527;47.460;19.016;2024-02-21T01:33:21;2.60;;;1.00;;
58756;SDS011;44527;47.460;19.016;2024-02-21T01:36:24;3.08;;;1.27;;
58756;SDS011;44527;47.460;19.016;2024-02-21T01:39:27;2.87;;;1.10;;
58756;SDS011;44527;47.460;19.016;2024-02-21T01:42:29;5.75;;;1.67;;
58756;SDS011;44527;47.460;19.016;2024-02-21T01:45:32;6.82;;;1.62;;
58756;SDS011;44527;47.460;19.016;2024-02-21T01:48:34;3.42;;;1.35;;
58756;SDS011;44527;47.460;19.016;2024-02-21T01:51:37;3.60;;;1.40;;
58756;SDS011;44527;47.460;19.016;2024-02-21T01:54:41;4.20;;;1.00;;
58756;SDS011;44527;47.460;19.016;2024-02-21T01:57:44;2.25;;;1.37;;
58756;SDS011;44527;47.460;19.016;2024-02-21T02:00:48;5.25;;;1.60;;
58756;SDS011;44527;47.460;19.016;2024-02-21T02:03:51;1.70;;;1.02;;
58756;SDS011;44527;47.460;19.016;2024-02-21T02:06:55;2.30;;;0.82;;
58756;SDS011;44527;47.460;19.016;2024-02-21T02:09:58;3.80;;;1.27;;
58756;SDS011;44527;47.460;19.016;2024-02-21T02:13:01;5.12;;;1.60;;
58756;SDS011;44527;47.460;19.016;2024-02-21T02:16:04;4.82;;;1.60;;
58756;SDS011;44527;47.460;19.016;2024-02-21T02:19:07;3.53;;;1.45;;
58756;SDS011;44527;47.460;19.016;2024-02-21T02:22:15;5.85;;;1.55;;
58756;SDS011;44527;47.460;19.016;2024-02-21T02:25:24;8.68;;;2.15;;
58756;SDS011;44527;47.460;19.016;2024-02-21T02:28:28;9.07;;;1.77;;
58756;SDS011;44527;47.460;19.016;2024-02-21T02:31:31;6.20;;;1.62;;
58756;SDS011;44527;47.460;19.016;2024-02-21T02:34:33;6.47;;;1.85;;
58756;SDS011;44527;47.460;19.016;2024-02-21T02:37:36;6.32;;;1.62;;
58756;SDS011;44527;47.460;19.016;2024-02-21T02:40:41;4.07;;;1.65;;
58756;SDS011;44527;47.460;19.016;2024-02-21T02:43:44;4.40;;;1.83;;
58756;SDS011;44527;47.460;19.016;2024-02-21T02:46:47;4.90;;;1.77;;
58756;SDS011;44527;47.460;19.016;2024-02-21T02:49:50;11.10;;;1.70;;
58756;SDS011;44527;47.460;19.016;2024-02-21T02:52:54;3.58;;;1.60;;
58756;SDS011;44527;47.460;19.016;2024-02-21T02:55:57;9.18;;;1.70;;
58756;SDS011;44527;47.460;19.016;2024-02-21T02:59:00;9.10;;;2.10;;
58756;SDS011;44527;47.460;19.016;2024-02-21T03:02:03;5.40;;;1.62;;
58756;SDS011;44527;47.460;19.016;2024-02-21T03:05:19;4.50;;;1.80;;
58756;SDS011;44527;47.460;19.016;2024-02-21T03:08:23;5.03;;;1.25;;
58756;SDS011;44527;47.460;19.016;2024-02-21T03:11:27;7.82;;;2.00;;
58756;SDS011;44527;47.460;19.016;2024-02-21T03:14:32;4.10;;;1.50;;
58756;SDS011;44527;47.460;19.016;2024-02-21T03:17:35;5.87;;;2.10;;
58756;SDS011;44527;47.460;19.016;2024-02-21T03:20:38;3.97;;;1.52;;
58756;SDS011;44527;47.460;19.016;2024-02-21T03:23:41;9.52;;;1.90;;
58756;SDS011;44527;47.460;19.016;2024-02-21T03:26:44;5.75;;;1.60;;
58756;SDS011;44527;47.460;19.016;2024-02-21T03:29:47;4.28;;;1.75;;
58756;SDS011;44527;47.460;19.016;2024-02-21T03:32:49;7.55;;;1.77;;
58756;SDS011;44527;47.460;19.016;2024-02-21T03:35:52;7.57;;;1.92;;
58756;SDS011;44527;47.460;19.016;2024-02-21T03:38:55;7.28;;;1.55;;
58756;SDS011;44527;47.460;19.016;2024-02-21T03:41:58;6.72;;;2.15;;
58756;SDS011;44527;47.460;19.016;2024-02-21T03:45:03;6.15;;;2.30;;
58756;SDS011;44527;47.460;19.016;2024-02-21T03:48:06;7.45;;;2.10;;
58756;SDS011;44527;47.460;19.016;2024-02-21T03:51:09;6.22;;;2.03;;
58756;SDS011;44527;47.460;19.016;2024-02-21T03:54:12;13.13;;;2.75;;
58756;SDS011;44527;47.460;19.016;2024-02-21T03:57:15;4.80;;;1.87;;
58756;SDS011;44527;47.460;19.016;2024-02-21T04:00:19;6.40;;;2.12;;
58756;SDS011;44527;47.460;19.016;2024-02-21T04:03:22;6.12;;;1.95;;
58756;SDS011;44527;47.460;19.016;2024-02-21T04:06:25;7.18;;;2.17;;
58756;SDS011;44527;47.460;19.016;2024-02-21T04:09:28;3.83;;;2.22;;
58756;SDS011;44527;47.460;19.016;2024-02-21T04:12:30;4.37;;;2.05;;
58756;SDS011;44527;47.460;19.016;2024-02-21T04:15:33;3.70;;;2.20;;
58756;SDS011;44527;47.460;19.016;2024-02-21T04:18:36;5.65;;;2.50;;
58756;SDS011;44527;47.460;19.016;2024-02-21T04:21:39;10.35;;;2.22;;
58756;SDS011;44527;47.460;19.016;2024-02-21T04:24:41;6.65;;;2.78;;
58756;SDS011;44527;47.460;19.016;2024-02-21T04:27:44;8.60;;;2.78;;
58756;SDS011;44527;47.460;19.016;2024-02-21T04:30:47;8.38;;;2.42;;
58756;SDS011;44527;47.460;19.016;2024-02-21T04:33:50;4.37;;;2.37;;
58756;SDS011;44527;47.460;19.016;2024-02-21T04:36:52;6.07;;;2.17;;
58756;SDS011;44527;47.460;19.016;2024-02-21T04:39:55;9.30;;;2.37;;
58756;SDS011;44527;47.460;19.016;2024-02-21T04:42:57;8.85;;;2.65;;
58756;SDS011;44527;47.460;19.016;2024-02-21T04:46:00;7.72;;;2.03;;
58756;SDS011;44527;47.460;19.016;2024-02-21T04:49:03;6.85;;;2.40;;
58756;SDS011;44527;47.460;19.016;2024-02-21T04:52:06;8.65;;;2.42;;
58756;SDS011;44527;47.460;19.016;2024-02-21T04:55:08;4.93;;;2.47;;
58756;SDS011;44527;47.460;19.016;2024-02-21T04:58:10;8.30;;;2.60;;
58756;SDS011;44527;47.460;19.016;2024-02-21T05:01:13;8.30;;;2.90;;
58756;SDS011;44527;47.460;19.016;2024-02-21T05:04:15;4.78;;;3.15;;
58756;SDS011;44527;47.460;19.016;2024-02-21T05:07:18;5.70;;;2.83;;
58756;SDS011;44527;47.460;19.016;2024-02-21T05:10:22;6.68;;;2.60;;
58756;SDS011;44527;47.460;19.016;2024-02-21T05:13:24;6.40;;;2.45;;
58756;SDS011;44527;47.460;19.016;2024-02-21T05:16:28;6.05;;;2.30;;
58756;SDS011;44527;47.460;19.016;2024-02-21T05:19:30;5.28;;;2.25;;
58756;SDS011;44527;47.460;19.016;2024-02-21T05:22:33;5.57;;;2.30;;
58756;SDS011;44527;47.460;19.016;2024-02-21T05:25:35;6.32;;;2.15;;
58756;SDS011;44527;47.460;19.016;2024-02-21T05:28:38;5.00;;;2.40;;
58756;SDS011;44527;47.460;19.016;2024-02-21T05:34:53;5.32;;;2.28;;
58756;SDS011;44527;47.460;19.016;2024-02-21T05:37:55;7.97;;;2.37;;
58756;SDS011;44527;47.460;19.016;2024-02-21T05:40:58;5.60;;;1.90;;
58756;SDS011;44527;47.460;19.016;2024-02-21T05:44:01;6.18;;;2.10;;
58756;SDS011;44527;47.460;19.016;2024-02-21T05:47:03;6.18;;;2.50;;
58756;SDS011;44527;47.460;19.016;2024-02-21T05:50:06;8.60;;;2.60;;
58756;SDS011;44527;47.460;19.016;2024-02-21T05:53:09;5.62;;;2.50;;
58756;SDS011;44527;47.460;19.016;2024-02-21T05:56:12;5.30;;;2.20;;
58756;SDS011;44527;47.460;19.016;2024-02-21T05:59:15;6.22;;;2.53;;
58756;SDS011;44527;47.460;19.016;2024-02-21T06:02:18;6.10;;;2.30;;
58756;SDS011;44527;47.460;19.016;2024-02-21T06:05:21;8.40;;;2.40;;
58756;SDS011;44527;47.460;19.016;2024-02-21T06:08:23;7.93;;;2.87;;
58756;SDS011;44527;47.460;19.016;2024-02-21T06:11:26;6.43;;;2.10;;
58756;SDS011;44527;47.460;19.016;2024-02-21T06:14:29;5.55;;;2.28;;
58756;SDS011;44527;47.460;19.016;2024-02-21T06:17:31;15.25;;;2.58;;
58756;SDS011;44527;47.460;19.016;2024-02-21T06:20:34;4.60;;;2.30;;
58756;SDS011;44527;47.460;19.016;2024-02-21T06:23:39;7.00;;;2.47;;
58756;SDS011;44527;47.460;19.016;2024-02-21T06:26:41;8.73;;;2.60;;
58756;SDS011;44527;47.460;19.016;2024-02-21T06:29:44;9.45;;;2.80;;
58756;SDS011;44527;47.460;19.016;2024-02-21T06:32:46;8.60;;;2.53;;
58756;SDS011;44527;47.460;19.016;2024-02-21T06:35:49;8.95;;;2.78;;
58756;SDS011;44527;47.460;19.016;2024-02-21T06:38:54;7.90;;;2.97;;
58756;SDS011;44527;47.460;19.016;2024-02-21T06:41:57;7.78;;;3.00;;
58756;SDS011;44527;47.460;19.016;2024-02-21T06:45:04;10.35;;;2.83;;
58756;SDS011;44527;47.460;19.016;2024-02-21T06:48:07;7.57;;;2.62;;
58756;SDS011;44527;47.460;19.016;2024-02-21T06:51:10;9.77;;;3.45;;
58756;SDS011;44527;47.460;19.016;2024-02-21T06:54:12;8.45;;;3.72;;
58756;SDS011;44527;47.460;19.016;2024-02-21T06:57:14;10.52;;;2.78;;
58756;SDS011;44527;47.460;19.016;2024-02-21T07:00:18;8.90;;;2.42;;
58756;SDS011;44527;47.460;19.016;2024-02-21T07:03:23;6.07;;;2.08;;
58756;SDS011;44527;47.460;19.016;2024-02-21T07:06:26;5.53;;;2.28;;
58756;SDS011;44527;47.460;19.016;2024-02-21T07:09:29;8.60;;;1.98;;
58756;SDS011;44527;47.460;19.016;2024-02-21T07:12:33;5.45;;;1.90;;
58756;SDS011;44527;47.460;19.016;2024-02-21T07:15:37;4.35;;;2.12;;
58756;SDS011;44527;47.460;19.016;2024-02-21T07:18:40;15.57;;;2.42;;
58756;SDS011;44527;47.460;19.016;2024-02-21T07:21:42;4.60;;;1.67;;
58756;SDS011;44527;47.460;19.016;2024-02-21T07:24:45;7.60;;;2.08;;
58756;SDS011;44527;47.460;19.016;2024-02-21T07:27:47;9.98;;;2.25;;
58756;SDS011;44527;47.460;19.016;2024-02-21T07:30:50;9.32;;;2.03;;
58756;SDS011;44527;47.460;19.016;2024-02-21T07:33:53;7.37;;;1.73;;
58756;SDS011;44527;47.460;19.016;2024-02-21T07:36:57;7.95;;;1.77;;
58756;SDS011;44527;47.460;19.016;2024-02-21T07:39:59;6.87;;;1.70;;
58756;SDS011;44527;47.460;19.016;2024-02-21T07:43:02;6.25;;;2.03;;
58756;SDS011;44527;47.460;19.016;2024-02-21T07:46:05;4.50;;;1.55;;
58756;SDS011;44527;47.460;19.016;2024-02-21T07:49:07;5.43;;;1.87;;
58756;SDS011;44527;47.460;19.016;2024-02-21T07:52:10;25.92;;;3.10;;
58756;SDS011;44527;47.460;19.016;2024-02-21T07:55:13;9.02;;;2.67;;
58756;SDS011;44527;47.460;19.016;2024-02-21T07:58:15;6.12;;;1.85;;
58756;SDS011;44527;47.460;19.016;2024-02-21T08:01:21;8.77;;;1.90;;
58756;SDS011;44527;47.460;19.016;2024-02-21T08:04:24;5.65;;;2.40;;
58756;SDS011;44527;47.460;19.016;2024-02-21T08:07:27;8.18;;;2.30;;
58756;SDS011;44527;47.460;19.016;2024-02-21T08:10:31;12.55;;;2.20;;
58756;SDS011;44527;47.460;19.016;2024-02-21T08:13:34;6.87;;;2.00;;
58756;SDS011;44527;47.460;19.016;2024-02-21T08:16:36;5.03;;;1.73;;
58756;SDS011;44527;47.460;19.016;2024-02-21T08:19:39;4.90;;;1.85;;
58756;SDS011;44527;47.460;19.016;2024-02-21T08:22:41;6.82;;;2.55;;
58756;SDS011;44527;47.460;19.016;2024-02-21T08:25:44;10.40;;;2.80;;
58756;SDS011;44527;47.460;19.016;2024-02-21T08:28:47;5.65;;;2.50;;
58756;SDS011;44527;47.460;19.016;2024-02-21T08:31:49;11.52;;;2.12;;
58756;SDS011;44527;47.460;19.016;2024-02-21T08:34:52;6.97;;;1.92;;
58756;SDS011;44527;47.460;19.016;2024-02-21T08:37:54;8.57;;;2.70;;
58756;SDS011;44527;47.460;19.016;2024-02-21T08:40:57;8.57;;;2.03;;
58756;SDS011;44527;47.460;19.016;2024-02-21T08:43:59;13.25;;;2.42;;
58756;SDS011;44527;47.460;19.016;2024-02-21T08:47:02;6.55;;;2.20;;
58756;SDS011;44527;47.460;19.016;2024-02-21T08:50:06;5.85;;;1.75;;
58756;SDS011;44527;47.460;19.016;2024-02-21T08:53:24;8.40;;;2.17;;
58756;SDS011;44527;47.460;19.016;2024-02-21T08:56:26;4.70;;;1.60;;
58756;SDS011;44527;47.460;19.016;2024-02-21T08:59:29;7.25;;;1.87;;
58756;SDS011;44527;47.460;19.016;2024-02-21T09:02:31;8.77;;;2.28;;
58756;SDS011;44527;47.460;19.016;2024-02-21T09:05:34;11.45;;;2.20;;
58756;SDS011;44527;47.460;19.016;2024-02-21T09:08:37;13.88;;;2.22;;
58756;SDS011;44527;47.460;19.016;2024-02-21T09:11:39;6.07;;;1.80;;
58756;SDS011;44527;47.460;19.016;2024-02-21T09:14:43;7.95;;;2.12;;
58756;SDS011;44527;47.460;19.016;2024-02-21T09:17:45;9.48;;;2.00;;
58756;SDS011;44527;47.460;19.016;2024-02-21T09:20:47;7.53;;;2.50;;
58756;SDS011;44527;47.460;19.016;2024-02-21T09:23:50;10.82;;;2.72;;
58756;SDS011;44527;47.460;19.016;2024-02-21T09:26:52;4.30;;;2.05;;
58756;SDS011;44527;47.460;19.016;2024-02-21T09:29:55;11.12;;;2.33;;
58756;SDS011;44527;47.460;19.016;2024-02-21T09:32:57;7.80;;;1.77;;
58756;SDS011;44527;47.460;19.016;2024-02-21T09:36:02;10.50;;;2.10;;
58756;SDS011;44527;47.460;19.016;2024-02-21T09:39:04;8.60;;;2.10;;
58756;SDS011;44527;47.460;19.016;2024-02-21T09:42:07;10.63;;;2.30;;
58756;SDS011;44527;47.460;19.016;2024-02-21T09:48:30;10.27;;;2.45;;
58756;SDS011;44527;47.460;19.016;2024-02-21T09:51:44;9.90;;;2.33;;
58756;SDS011;44527;47.460;19.016;2024-02-21T09:54:50;6.12;;;2.20;;
58756;SDS011;44527;47.460;19.016;2024-02-21T09:57:54;8.88;;;2.40;;
58756;SDS011;44527;47.460;19.016;2024-02-21T10:00:59;6.22;;;2.10;;
58756;SDS011;44527;47.460;19.016;2024-02-21T10:04:05;12.23;;;2.50;;
58756;SDS011;44527;47.460;19.016;2024-02-21T10:07:07;10.50;;;2.30;;
58756;SDS011;44527;47.460;19.016;2024-02-21T10:10:11;11.12;;;2.30;;
58756;SDS011;44527;47.460;19.016;2024-02-21T10:13:26;7.60;;;2.70;;
58756;SDS011;44527;47.460;19.016;2024-02-21T10:16:30;12.48;;;2.65;;
58756;SDS011;44527;47.460;19.016;2024-02-21T10:19:32;8.75;;;2.15;;
58756;SDS011;44527;47.460;19.016;2024-02-21T10:22:37;6.47;;;2.30;;
58756;SDS011;44527;47.460;19.016;2024-02-21T10:25:41;12.37;;;2.30;;
58756;SDS011;44527;47.460;19.016;2024-02-21T10:28:48;12.63;;;2.65;;
58756;SDS011;44527;47.460;19.016;2024-02-21T10:32:03;11.48;;;3.42;;
58756;SDS011;44527;47.460;19.016;2024-02-21T10:35:09;5.60;;;2.30;;
58756;SDS011;44527;47.460;19.016;2024-02-21T10:38:12;14.50;;;3.37;;
58756;SDS011;44527;47.460;19.016;2024-02-21T10:41:16;8.45;;;2.10;;
58756;SDS011;44527;47.460;19.016;2024-02-21T10:44:21;6.22;;;2.03;;
58756;SDS011;44527;47.460;19.016;2024-02-21T10:47:25;8.25;;;2.28;;
58756;SDS011;44527;47.460;19.016;2024-02-21T10:50:32;12.32;;;3.03;;
58756;SDS011;44527;47.460;19.016;2024-02-21T10:57:15;8.50;;;2.47;;
58756;SDS011;44527;47.460;19.016;2024-02-21T11:00:19;7.55;;;2.55;;
58756;SDS011;44527;47.460;19.016;2024-02-21T11:03:22;7.80;;;2.42;;
58756;SDS011;44527;47.460;19.016;2024-02-21T11:06:25;7.20;;;2.95;;
58756;SDS011;44527;47.460;19.016;2024-02-21T11:09:30;10.85;;;2.45;;
58756;SDS011;44527;47.460;19.016;2024-02-21T11:12:36;10.27;;;3.08;;
58756;SDS011;44527;47.460;19.016;2024-02-21T11:15:38;11.15;;;2.25;;
58756;SDS011;44527;47.460;19.016;2024-02-21T11:18:41;10.95;;;2.10;;
58756;SDS011;44527;47.460;19.016;2024-02-21T11:21:43;9.63;;;2.42;;
58756;SDS011;44527;47.460;19.016;2024-02-21T11:24:46;9.55;;;2.60;;
58756;SDS011;44527;47.460;19.016;2024-02-21T11:27:48;12.60;;;2.70;;
58756;SDS011;44527;47.460;19.016;2024-02-21T11:30:51;7.00;;;2.40;;
58756;SDS011;44527;47.460;19.016;2024-02-21T11:33:53;8.98;;;2.70;;
58756;SDS011;44527;47.460;19.016;2024-02-21T11:36:56;6.18;;;1.87;;
58756;SDS011;44527;47.460;19.016;2024-02-21T11:39:59;7.93;;;2.33;;
58756;SDS011;44527;47.460;19.016;2024-02-21T11:43:02;8.50;;;2.58;;
58756;SDS011;44527;47.460;19.016;2024-02-21T11:46:05;5.70;;;1.60;;
58756;SDS011;44527;47.460;19.016;2024-02-21T11:49:09;10.20;;;2.60;;
58756;SDS011;44527;47.460;19.016;2024-02-21T11:52:12;8.82;;;2.22;;
58756;SDS011;44527;47.460;19.016;2024-02-21T11:55:17;19.00;;;3.00;;
58756;SDS011;44527;47.460;19.016;2024-02-21T11:58:20;8.82;;;2.62;;
58756;SDS011;44527;47.460;19.016;2024-02-21T12:01:23;12.37;;;3.12;;
58756;SDS011;44527;47.460;19.016;2024-02-21T12:04:26;10.65;;;2.67;;
58756;SDS011;44527;47.460;19.016;2024-02-21T12:07:30;8.32;;;2.62;;
58756;SDS011;44527;47.460;19.016;2024-02-21T12:10:35;5.82;;;2.10;;
58756;SDS011;44527;47.460;19.016;2024-02-21T12:13:38;7.20;;;2.60;;
58756;SDS011;44527;47.460;19.016;2024-02-21T12:16:42;7.10;;;2.30;;
58756;SDS011;44527;47.460;19.016;2024-02-21T12:19:50;11.20;;;1.90;;
58756;SDS011;44527;47.460;19.016;2024-02-21T12:22:53;7.15;;;1.98;;
58756;SDS011;44527;47.460;19.016;2024-02-21T12:25:58;5.35;;;2.22;;
58756;SDS011;44527;47.460;19.016;2024-02-21T12:29:01;13.93;;;2.78;;
58756;SDS011;44527;47.460;19.016;2024-02-21T12:32:04;8.18;;;2.15;;
58756;SDS011;44527;47.460;19.016;2024-02-21T12:35:07;6.80;;;2.10;;
58756;SDS011;44527;47.460;19.016;2024-02-21T12:38:10;7.03;;;2.10;;
58756;SDS011;44527;47.460;19.016;2024-02-21T12:41:16;8.80;;;2.37;;
58756;SDS011;44527;47.460;19.016;2024-02-21T12:44:18;5.53;;;1.60;;
58756;SDS011;44527;47.460;19.016;2024-02-21T12:47:21;13.73;;;2.33;;
58756;SDS011;44527;47.460;19.016;2024-02-21T12:50:25;5.40;;;1.60;;
58756;SDS011;44527;47.460;19.016;2024-02-21T12:53:28;8.70;;;1.92;;
58756;SDS011;44527;47.460;19.016;2024-02-21T12:56:35;9.43;;;2.33;;
58756;SDS011;44527;47.460;19.016;2024-02-21T12:59:38;15.02;;;2.35;;
58756;SDS011;44527;47.460;19.016;2024-02-21T13:02:41;9.82;;;1.85;;
58756;SDS011;44527;47.460;19.016;2024-02-21T13:05:45;9.93;;;2.47;;
58756;SDS011;44527;47.460;19.016;2024-02-21T13:08:47;8.93;;;2.10;;
58756;SDS011;44527;47.460;19.016;2024-02-21T13:11:50;7.95;;;2.20;;
58756;SDS011;44527;47.460;19.016;2024-02-21T13:14:53;6.25;;;2.00;;
58756;SDS011;44527;47.460;19.016;2024-02-21T13:17:56;7.65;;;1.95;;
58756;SDS011;44527;47.460;19.016;2024-02-21T13:21:00;8.15;;;1.92;;
58756;SDS011;44527;47.460;19.016;2024-02-21T13:24:03;6.50;;;2.10;;
58756;SDS011;44527;47.460;19.016;2024-02-21T13:27:06;7.75;;;2.17;;
58756;SDS011;44527;47.460;19.016;2024-02-21T13:30:09;7.35;;;2.10;;
58756;SDS011;44527;47.460;19.016;2024-02-21T13:33:13;9.70;;;2.00;;
58756;SDS011;44527;47.460;19.016;2024-02-21T13:36:15;14.00;;;2.53;;
58756;SDS011;44527;47.460;19.016;2024-02-21T13:39:18;8.20;;;2.35;;
58756;SDS011;44527;47.460;19.016;2024-02-21T13:42:21;9.13;;;2.12;;
58756;SDS011;44527;47.460;19.016;2024-02-21T13:45:24;8.05;;;2.17;;
58756;SDS011;44527;47.460;19.016;2024-02-21T13:48:26;9.02;;;1.73;;
58756;SDS011;44527;47.460;19.016;2024-02-21T13:51:34;11.90;;;2.00;;
58756;SDS011;44527;47.460;19.016;2024-02-21T13:54:40;6.37;;;1.73;;
58756;SDS011;44527;47.460;19.016;2024-02-21T13:57:43;7.78;;;1.60;;
58756;SDS011;44527;47.460;19.016;2024-02-21T14:00:46;9.48;;;2.00;;
58756;SDS011;44527;47.460;19.016;2024-02-21T14:03:49;7.57;;;1.83;;
58756;SDS011;44527;47.460;19.016;2024-02-21T14:06:51;6.22;;;1.90;;
58756;SDS011;44527;47.460;19.016;2024-02-21T14:09:55;6.10;;;2.03;;
58756;SDS011;44527;47.460;19.016;2024-02-21T14:12:57;8.25;;;2.20;;
58756;SDS011;44527;47.460;19.016;2024-02-21T14:16:00;9.85;;;1.98;;
58756;SDS011;44527;47.460;19.016;2024-02-21T14:19:03;7.87;;;1.65;;
58756;SDS011;44527;47.460;19.016;2024-02-21T14:22:05;9.82;;;1.65;;
58756;SDS011;44527;47.460;19.016;2024-02-21T14:25:08;8.05;;;2.37;;
58756;SDS011;44527;47.460;19.016;2024-02-21T14:28:10;8.32;;;2.03;;
58756;SDS011;44527;47.460;19.016;2024-02-21T14:31:13;6.82;;;1.77;;
58756;SDS011;44527;47.460;19.016;2024-02-21T14:34:16;7.82;;;1.60;;
58756;SDS011;44527;47.460;19.016;2024-02-21T14:37:18;8.45;;;1.75;;
58756;SDS011;44527;47.460;19.016;2024-02-21T14:40:21;9.02;;;1.50;;
58756;SDS011;44527;47.460;19.016;2024-02-21T14:43:23;7.00;;;1.67;;
58756;SDS011;44527;47.460;19.016;2024-02-21T14:46:26;12.37;;;1.70;;
58756;SDS011;44527;47.460;19.016;2024-02-21T14:49:31;15.38;;;2.37;;
58756;SDS011;44527;47.460;19.016;2024-02-21T14:52:34;7.28;;;1.55;;
58756;SDS011;44527;47.460;19.016;2024-02-21T14:55:38;9.00;;;2.10;;
58756;SDS011;44527;47.460;19.016;2024-02-21T14:58:41;14.80;;;2.90;;
58756;SDS011;44527;47.460;19.016;2024-02-21T15:01:43;8.60;;;1.80;;
58756;SDS011;44527;47.460;19.016;2024-02-21T15:04:47;5.05;;;1.77;;
58756;SDS011;44527;47.460;19.016;2024-02-21T15:07:49;9.88;;;1.60;;
58756;SDS011;44527;47.460;19.016;2024-02-21T15:10:55;8.60;;;1.73;;
58756;SDS011;44527;47.460;19.016;2024-02-21T15:13:57;16.08;;;2.17;;
58756;SDS011;44527;47.460;19.016;2024-02-21T15:17:00;11.93;;;2.10;;
58756;SDS011;44527;47.460;19.016;2024-02-21T15:20:03;8.43;;;2.22;;
58756;SDS011;44527;47.460;19.016;2024-02-21T15:23:10;8.20;;;1.65;;
58756;SDS011;44527;47.460;19.016;2024-02-21T15:26:12;7.85;;;2.15;;
58756;SDS011;44527;47.460;19.016;2024-02-21T15:29:18;8.82;;;1.62;;
58756;SDS011;44527;47.460;19.016;2024-02-21T15:32:20;10.75;;;2.25;;
58756;SDS011;44527;47.460;19.016;2024-02-21T15:35:24;7.12;;;1.60;;
58756;SDS011;44527;47.460;19.016;2024-02-21T15:38:28;5.97;;;1.40;;
58756;SDS011;44527;47.460;19.016;2024-02-21T15:41:31;13.93;;;2.00;;
58756;SDS011;44527;47.460;19.016;2024-02-21T15:44:33;6.35;;;1.73;;
58756;SDS011;44527;47.460;19.016;2024-02-21T15:47:35;7.97;;;1.73;;
58756;SDS011;44527;47.460;19.016;2024-02-21T15:50:38;9.00;;;1.33;;
58756;SDS011;44527;47.460;19.016;2024-02-21T15:53:40;4.75;;;1.70;;
58756;SDS011;44527;47.460;19.016;2024-02-21T15:56:47;5.37;;;1.58;;
58756;SDS011;44527;47.460;19.016;2024-02-21T15:59:50;8.48;;;2.03;;
58756;SDS011;44527;47.460;19.016;2024-02-21T16:02:55;4.87;;;1.60;;
58756;SDS011;44527;47.460;19.016;2024-02-21T16:05:59;10.27;;;1.87;;
58756;SDS011;44527;47.460;19.016;2024-02-21T16:09:01;12.73;;;2.28;;
58756;SDS011;44527;47.460;19.016;2024-02-21T16:12:07;6.25;;;1.85;;
58756;SDS011;44527;47.460;19.016;2024-02-21T16:15:10;4.70;;;1.83;;
58756;SDS011;44527;47.460;19.016;2024-02-21T16:18:13;15.10;;;3.00;;
58756;SDS011;44527;47.460;19.016;2024-02-21T16:21:22;11.80;;;2.62;;
58756;SDS011;44527;47.460;19.016;2024-02-21T16:24:24;10.10;;;3.08;;
58756;SDS011;44527;47.460;19.016;2024-02-21T16:27:27;16.80;;;4.07;;
58756;SDS011;44527;47.460;19.016;2024-02-21T16:30:31;9.93;;;3.83;;
58756;SDS011;44527;47.460;19.016;2024-02-21T16:33:35;13.90;;;4.03;;
58756;SDS011;44527;47.460;19.016;2024-02-21T16:36:37;9.90;;;3.65;;
58756;SDS011;44527;47.460;19.016;2024-02-21T16:39:42;12.18;;;3.72;;
58756;SDS011;44527;47.460;19.016;2024-02-21T16:42:45;12.02;;;3.30;;
58756;SDS011;44527;47.460;19.016;2024-02-21T16:45:47;11.38;;;3.70;;
58756;SDS011;44527;47.460;19.016;2024-02-21T16:48:50;14.43;;;3.47;;
58756;SDS011;44527;47.460;19.016;2024-02-21T16:51:52;7.45;;;3.50;;
58756;SDS011;44527;47.460;19.016;2024-02-21T16:54:55;8.95;;;3.53;;
58756;SDS011;44527;47.460;19.016;2024-02-21T16:57:58;11.68;;;4.28;;
58756;SDS011;44527;47.460;19.016;2024-02-21T17:01:01;12.60;;;4.90;;
58756;SDS011;44527;47.460;19.016;2024-02-21T17:04:15;15.00;;;4.53;;
58756;SDS011;44527;47.460;19.016;2024-02-21T17:07:20;15.27;;;4.40;;
58756;SDS011;44527;47.460;19.016;2024-02-21T17:10:23;9.85;;;4.40;;
58756;SDS011;44527;47.460;19.016;2024-02-21T17:13:25;11.02;;;4.57;;
58756;SDS011;44527;47.460;19.016;2024-02-21T17:16:28;15.88;;;3.78;;
58756;SDS011;44527;47.460;19.016;2024-02-21T17:19:30;12.63;;;4.28;;
58756;SDS011;44527;47.460;19.016;2024-02-21T17:22:33;11.90;;;4.78;;
58756;SDS011;44527;47.460;19.016;2024-02-21T17:25:36;8.98;;;3.30;;
58756;SDS011;44527;47.460;19.016;2024-02-21T17:28:38;11.32;;;3.92;;
58756;SDS011;44527;47.460;19.016;2024-02-21T17:31:41;13.48;;;4.82;;
58756;SDS011;44527;47.460;19.016;2024-02-21T17:34:45;15.13;;;4.22;;
58756;SDS011;44527;47.460;19.016;2024-02-21T17:37:47;17.35;;;4.10;;
58756;SDS011;44527;47.460;19.016;2024-02-21T17:40:50;7.68;;;3.80;;
58756;SDS011;44527;47.460;19.016;2024-02-21T17:43:53;21.50;;;3.78;;
58756;SDS011;44527;47.460;19.016;2024-02-21T17:46:55;15.77;;;4.32;;
58756;SDS011;44527;47.460;19.016;2024-02-21T17:49:58;10.70;;;3.65;;
58756;SDS011;44527;47.460;19.016;2024-02-21T17:53:01;17.33;;;4.00;;
58756;SDS011;44527;47.460;19.016;2024-02-21T17:56:05;8.75;;;3.47;;
58756;SDS011;44527;47.460;19.016;2024-02-21T17:59:09;10.10;;;3.90;;
58756;SDS011;44527;47.460;19.016;2024-02-21T18:02:12;12.70;;;3.90;;
58756;SDS011;44527;47.460;19.016;2024-02-21T18:05:18;16.95;;;4.35;;
58756;SDS011;44527;47.460;19.016;2024-02-21T18:08:22;14.05;;;4.03;;
58756;SDS011;44527;47.460;19.016;2024-02-21T18:11:25;13.00;;;4.15;;
58756;SDS011;44527;47.460;19.016;2024-02-21T18:14:27;19.42;;;5.37;;